サンホセ/フアン・サンタ・マリア の空港の天気 - METARとTAF

フアン・サンタ・マリア国際空港 ( MROC / SJO ) - コスタリカ サンホセ
飛行場実況気象(Metar)
観測時間06/17 13:00 CST (06/17 19:00 UTC)
風向・風速東 7m/s
視程10km以上
天気現象
全天の4割程度の雲 雲底高度 1220m
全天の8割程度の雲 雲底高度 3960m
気温29℃
湿度52%
気圧1014hPa
METARMROC 171900Z 08013KT 9999 SCT040 BKN130 29/18 A2994 NOSIG
過去の天気等 Google飛行場航空写真 Wunderground天気予報

過去48時間のMETAR

飛行場予報(TAF)
発表時間: 6/12 17:00 CST (6/12 23:00 UTC)
予報対象時間: 12日18時 CST ~ 13日18時 CST
風向・風速東 3m/s
視程10km以上
少しの雲 雲底高度 910m
全天の4割程度の雲 雲底高度 3050m
12日18時 CST ~ 12日22時 CST に一時的に
風向・風速不定 1m/s
視程5000m
天気現象雨 もや
全天の8割程度の雲 雲底高度 610m
13日9時 CST ~ 13日11時 CST に徐々に
風向・風速西南西 5m/s
13日13時 CST ~ 13日17時 CST に一時的に
天気現象弱い雷雨
少しの積乱雲 雲底高度 460m
MROC 122300Z 1300/1324 09006KT 9999 FEW030 SCT100 TX29/1318Z TN19/1311Z
TEMPO 1300/1304 VRB02KT 5000 RA BR BKN020
BECMG 1315/1317 25009KT
TEMPO 1319/1323 -TSRA FEW015CB